createdAt,value
2022-09-25T00:02:28.000Z,11.4
2022-09-25T00:06:01.000Z,12.9
2022-09-25T00:09:33.000Z,15
2022-09-25T00:13:06.000Z,14.2
2022-09-25T00:16:38.000Z,14.7
2022-09-25T00:20:11.000Z,13.4
2022-09-25T00:23:44.000Z,14.3
2022-09-25T00:27:16.000Z,13.2
2022-09-25T00:30:49.000Z,12.6
2022-09-25T00:34:22.000Z,18
2022-09-25T00:37:13.000Z,11.6
2022-09-25T00:40:46.000Z,13.9
2022-09-25T00:44:19.000Z,13.4
2022-09-25T00:47:51.000Z,17.3
2022-09-25T00:51:24.000Z,16.9
2022-09-25T00:54:57.000Z,17.4
2022-09-25T00:58:29.000Z,17.8
2022-09-25T01:02:02.000Z,12.5
2022-09-25T01:05:35.000Z,17.3
2022-09-25T01:09:07.000Z,16
2022-09-25T01:12:40.000Z,15.1
2022-09-25T01:15:31.000Z,14.5
2022-09-25T01:19:04.000Z,14.4
2022-09-25T01:22:36.000Z,13.6
2022-09-25T01:26:09.000Z,13.6
2022-09-25T01:29:42.000Z,10.8
2022-09-25T01:33:15.000Z,13.8
2022-09-25T01:36:47.000Z,15.4
2022-09-25T01:40:20.000Z,14.8
2022-09-25T01:43:52.000Z,14.4
2022-09-25T01:47:25.000Z,13.8
2022-09-25T01:50:58.000Z,14.4
2022-09-25T01:53:49.000Z,15.4
2022-09-25T01:57:21.000Z,15.1
2022-09-25T02:00:54.000Z,14.5
2022-09-25T02:04:27.000Z,14.7
2022-09-25T02:07:59.000Z,16.1
2022-09-25T02:11:32.000Z,16.8
2022-09-25T02:15:05.000Z,16.1
2022-09-25T02:18:37.000Z,15.7
2022-09-25T02:22:10.000Z,10.8
2022-09-25T02:25:43.000Z,11.9
2022-09-25T02:29:15.000Z,12.7
2022-09-25T02:32:06.000Z,15.3
2022-09-25T02:35:39.000Z,14.9
2022-09-25T02:39:12.000Z,16.2
2022-09-25T02:42:44.000Z,16
2022-09-25T02:46:17.000Z,17.1
2022-09-25T02:49:50.000Z,15.6
2022-09-25T02:53:22.000Z,15
2022-09-25T02:56:55.000Z,15
2022-09-25T03:00:29.000Z,15.7
2022-09-25T03:04:02.000Z,16.4
2022-09-25T03:07:35.000Z,15.6
2022-09-25T03:10:26.000Z,19.1
2022-09-25T03:13:59.000Z,20.1
2022-09-25T03:17:31.000Z,19.6
2022-09-25T03:21:04.000Z,16.5
2022-09-25T03:24:36.000Z,15.3
2022-09-25T03:28:09.000Z,15.3
2022-09-25T03:31:42.000Z,17.3
2022-09-25T03:35:14.000Z,12.7
2022-09-25T03:38:47.000Z,13.5
2022-09-25T03:42:20.000Z,13
2022-09-25T03:45:52.000Z,18.4
2022-09-25T03:48:43.000Z,18.4
2022-09-25T03:52:16.000Z,16.1
2022-09-25T03:55:48.000Z,17.5
2022-09-25T03:59:21.000Z,12.6
2022-09-25T04:02:54.000Z,16.7
2022-09-25T04:06:26.000Z,14.6
2022-09-25T04:09:59.000Z,17.2
2022-09-25T04:13:32.000Z,15.8
2022-09-25T04:17:04.000Z,14.7
2022-09-25T04:20:37.000Z,14.6
2022-09-25T04:24:10.000Z,15.4
2022-09-25T04:27:01.000Z,14.8
2022-09-25T04:30:34.000Z,13.9
2022-09-25T04:34:06.000Z,14.8
2022-09-25T04:37:39.000Z,15.7
2022-09-25T04:41:11.000Z,15.6
2022-09-25T04:44:44.000Z,17.5
2022-09-25T04:48:20.000Z,18.6
2022-09-25T04:51:53.000Z,18.5
2022-09-25T04:55:26.000Z,15.4
2022-09-25T04:58:58.000Z,14.8
2022-09-25T05:02:31.000Z,14.7
2022-09-25T05:05:22.000Z,11.7
2022-09-25T05:08:55.000Z,14.8
2022-09-25T05:12:27.000Z,12.1
2022-09-25T05:16:00.000Z,11.6
2022-09-25T05:19:33.000Z,11.9
2022-09-25T05:23:05.000Z,10.9
2022-09-25T05:26:38.000Z,12.6
2022-09-25T05:30:10.000Z,11.2
2022-09-25T05:33:43.000Z,17.4
2022-09-25T05:37:16.000Z,17.3
2022-09-25T05:40:48.000Z,16.3
2022-09-25T05:43:40.000Z,17.7
2022-09-25T05:47:12.000Z,17.3
2022-09-25T05:50:45.000Z,17.4
2022-09-25T05:54:17.000Z,12.2
2022-09-25T05:57:50.000Z,12.7
2022-09-25T06:01:23.000Z,12.6
2022-09-25T06:04:55.000Z,16.2
2022-09-25T06:08:28.000Z,16.1
2022-09-25T06:12:01.000Z,17.1
2022-09-25T06:15:33.000Z,11.4
2022-09-25T06:19:06.000Z,17.8
2022-09-25T06:21:57.000Z,18.3
2022-09-25T06:25:30.000Z,12.6
2022-09-25T06:29:03.000Z,18
2022-09-25T06:32:35.000Z,13.6
2022-09-25T06:36:08.000Z,12.8
2022-09-25T06:39:41.000Z,12.8
2022-09-25T06:43:13.000Z,13.6
2022-09-25T06:46:46.000Z,16.3
2022-09-25T06:50:18.000Z,16.8
2022-09-25T06:53:51.000Z,17.1
2022-09-25T06:57:24.000Z,13.4
2022-09-25T07:00:15.000Z,13.2
2022-09-25T07:03:48.000Z,13.2
2022-09-25T07:07:21.000Z,15.1
2022-09-25T07:10:53.000Z,24.3
2022-09-25T07:14:26.000Z,17.8
2022-09-25T07:17:59.000Z,14.5
2022-09-25T07:21:31.000Z,13.8
2022-09-25T07:25:04.000Z,14.4
2022-09-25T07:28:41.000Z,13.9
2022-09-25T07:32:14.000Z,15.9
2022-09-25T07:35:47.000Z,13.7
2022-09-25T07:38:38.000Z,14.9
2022-09-25T07:42:10.000Z,13
2022-09-25T07:45:43.000Z,14.4
2022-09-25T07:49:16.000Z,13
2022-09-25T07:52:48.000Z,13.1
2022-09-25T07:56:21.000Z,15.9
2022-09-25T07:59:54.000Z,13.7
2022-09-25T08:03:26.000Z,12.7
2022-09-25T08:06:59.000Z,16.8
2022-09-25T08:10:32.000Z,14.8
2022-09-25T08:14:04.000Z,17.1
2022-09-25T08:16:56.000Z,15.4
2022-09-25T08:20:28.000Z,18.7
2022-09-25T08:24:01.000Z,16.3
2022-09-25T08:27:33.000Z,18.8
2022-09-25T08:31:06.000Z,19
2022-09-25T08:34:39.000Z,16.5
2022-09-25T08:38:12.000Z,14.4
2022-09-25T08:41:45.000Z,18.3
2022-09-25T08:45:17.000Z,16.6
2022-09-25T08:48:50.000Z,15.7
2022-09-25T08:52:23.000Z,18.5
2022-09-25T08:55:14.000Z,16.3
2022-09-25T08:58:46.000Z,16.8
2022-09-25T09:02:19.000Z,15.5
2022-09-25T09:05:52.000Z,14.8
2022-09-25T09:09:26.000Z,15.9
2022-09-25T09:12:59.000Z,16.7
2022-09-25T09:16:32.000Z,16.2
2022-09-25T09:20:04.000Z,14.6
2022-09-25T09:23:37.000Z,15.1
2022-09-25T09:27:10.000Z,14.4
2022-09-25T09:30:42.000Z,13.5
2022-09-25T09:33:33.000Z,13.3
2022-09-25T09:37:06.000Z,11.8
2022-09-25T09:40:39.000Z,12.3
2022-09-25T09:44:11.000Z,11.7
2022-09-25T09:47:44.000Z,11.3
2022-09-25T09:51:17.000Z,11.2
2022-09-25T09:54:49.000Z,10.7
2022-09-25T09:58:22.000Z,9.5
2022-09-25T10:02:00.000Z,9.9
2022-09-25T10:05:33.000Z,9.4
2022-09-25T10:09:06.000Z,10.2
2022-09-25T10:11:57.000Z,11.1
2022-09-25T10:15:30.000Z,9.4
2022-09-25T10:19:03.000Z,9.6
2022-09-25T10:22:35.000Z,11.3
2022-09-25T10:26:08.000Z,9.7
2022-09-25T10:29:41.000Z,9.4
2022-09-25T10:33:13.000Z,9.8
2022-09-25T10:36:46.000Z,10.1
2022-09-25T10:40:19.000Z,9.1
2022-09-25T10:43:51.000Z,9.4
2022-09-25T10:47:24.000Z,8.9
2022-09-25T10:50:15.000Z,8.8
2022-09-25T10:53:48.000Z,9.1
2022-09-25T10:57:20.000Z,10.2
2022-09-25T11:00:53.000Z,9.3
2022-09-25T11:04:26.000Z,8.9
2022-09-25T11:07:58.000Z,9.5
2022-09-25T11:11:31.000Z,9.6
2022-09-25T11:15:04.000Z,10.1
2022-09-25T11:18:36.000Z,9.4
2022-09-25T11:22:09.000Z,9.8
2022-09-25T11:25:42.000Z,9.3
2022-09-25T11:28:33.000Z,9.4
2022-09-25T11:32:05.000Z,9.4
2022-09-25T11:35:38.000Z,9.9
2022-09-25T11:39:10.000Z,10.8
2022-09-25T11:42:43.000Z,8.9
2022-09-25T11:46:16.000Z,9.8
2022-09-25T11:49:48.000Z,9.8
2022-09-25T11:53:21.000Z,9
2022-09-25T11:56:54.000Z,9
2022-09-25T12:00:26.000Z,8.9
2022-09-25T12:03:59.000Z,9.4
2022-09-25T12:06:50.000Z,9.9
2022-09-25T12:10:23.000Z,8.1
2022-09-25T12:13:55.000Z,10.2
2022-09-25T12:17:28.000Z,9.4
2022-09-25T12:21:01.000Z,8.5
2022-09-25T12:24:33.000Z,9
2022-09-25T12:28:06.000Z,8
2022-09-25T12:31:38.000Z,7.3
2022-09-25T12:35:11.000Z,6.8
2022-09-25T12:38:44.000Z,6.9
2022-09-25T12:42:16.000Z,5.9
2022-09-25T12:45:07.000Z,5.4
2022-09-25T12:48:40.000Z,5.3
2022-09-25T12:52:12.000Z,5.3
2022-09-25T12:55:45.000Z,5.1
2022-09-25T12:59:18.000Z,4.6
2022-09-25T13:02:50.000Z,5
2022-09-25T13:06:23.000Z,5.4
2022-09-25T13:09:56.000Z,4.6
2022-09-25T13:13:28.000Z,3.8
2022-09-25T13:17:01.000Z,3.6
2022-09-25T13:20:34.000Z,3.2
2022-09-25T13:23:25.000Z,3
2022-09-25T13:26:57.000Z,3
2022-09-25T13:30:30.000Z,3.3
2022-09-25T13:34:03.000Z,2.8
2022-09-25T13:37:35.000Z,2.9
2022-09-25T13:41:08.000Z,3
2022-09-25T13:44:41.000Z,3.6
2022-09-25T13:48:13.000Z,3.2
2022-09-25T13:51:46.000Z,2.9
2022-09-25T13:55:19.000Z,3.4
2022-09-25T13:58:52.000Z,3.6
2022-09-25T14:01:43.000Z,2.9
2022-09-25T14:05:16.000Z,3.5
2022-09-25T14:08:49.000Z,3.3
2022-09-25T14:12:21.000Z,3.4
2022-09-25T14:15:54.000Z,3.6
2022-09-25T14:19:27.000Z,3.3
2022-09-25T14:22:59.000Z,3.1
2022-09-25T14:26:32.000Z,3.2
2022-09-25T14:30:05.000Z,3.6
2022-09-25T14:33:37.000Z,3.5
2022-09-25T14:37:10.000Z,3.1
2022-09-25T14:40:01.000Z,3.2
2022-09-25T14:43:34.000Z,3.5
2022-09-25T14:47:07.000Z,3
2022-09-25T14:50:39.000Z,3.4
2022-09-25T14:54:12.000Z,3.3
2022-09-25T14:57:45.000Z,3
2022-09-25T15:01:17.000Z,3.3
2022-09-25T15:04:50.000Z,3
2022-09-25T15:08:23.000Z,2.4
2022-09-25T15:11:55.000Z,2.9
2022-09-25T15:15:28.000Z,3
2022-09-25T15:18:19.000Z,2.7
2022-09-25T15:21:52.000Z,2.7
2022-09-25T15:25:24.000Z,2.9
2022-09-25T15:28:57.000Z,2.3
2022-09-25T15:32:29.000Z,2.1
2022-09-25T15:36:02.000Z,2.1
2022-09-25T15:39:35.000Z,2.5
2022-09-25T15:43:08.000Z,1.9
2022-09-25T15:46:40.000Z,2.4
2022-09-25T15:50:13.000Z,2.5
2022-09-25T15:53:51.000Z,2.2
2022-09-25T15:56:42.000Z,2.3
2022-09-25T16:00:15.000Z,2.3
2022-09-25T16:03:47.000Z,2.6
2022-09-25T16:07:20.000Z,3
2022-09-25T16:10:53.000Z,2.3
2022-09-25T16:14:25.000Z,3
2022-09-25T16:17:58.000Z,2.2
2022-09-25T16:21:31.000Z,2.2
2022-09-25T16:25:03.000Z,3.6
2022-09-25T16:28:36.000Z,3.1
2022-09-25T16:32:09.000Z,4.2
2022-09-25T16:35:00.000Z,4
2022-09-25T16:38:32.000Z,3.8
2022-09-25T16:42:05.000Z,3.6
2022-09-25T16:45:38.000Z,3.2
2022-09-25T16:49:10.000Z,3.1
2022-09-25T16:52:43.000Z,3
2022-09-25T16:56:15.000Z,2.8
2022-09-25T16:59:48.000Z,3.4
2022-09-25T17:03:21.000Z,3.7
2022-09-25T17:06:53.000Z,3.7
2022-09-25T17:10:26.000Z,3
2022-09-25T17:13:17.000Z,3
2022-09-25T17:16:50.000Z,3.7
2022-09-25T17:20:22.000Z,4.6
2022-09-25T17:23:55.000Z,3.1
2022-09-25T17:27:28.000Z,2.8
2022-09-25T17:31:00.000Z,3.2
2022-09-25T17:34:33.000Z,3.9
2022-09-25T17:38:05.000Z,3.7
2022-09-25T17:41:38.000Z,3.1
2022-09-25T17:45:11.000Z,3
2022-09-25T17:48:44.000Z,3.5
2022-09-25T17:51:38.000Z,3.9
2022-09-25T17:55:11.000Z,11.7
2022-09-25T17:58:43.000Z,27.4
2022-09-25T18:02:16.000Z,29.7
2022-09-25T18:05:49.000Z,11.2
2022-09-25T18:09:21.000Z,5.4
2022-09-25T18:12:54.000Z,5.5
2022-09-25T18:16:27.000Z,6.5
2022-09-25T18:19:59.000Z,5.4
2022-09-25T18:23:32.000Z,4.5
2022-09-25T18:27:04.000Z,4.2
2022-09-25T18:29:55.000Z,5
2022-09-25T18:33:28.000Z,7.4
2022-09-25T18:37:01.000Z,8.7
2022-09-25T18:40:33.000Z,8.2
2022-09-25T18:44:06.000Z,7.9
2022-09-25T18:47:39.000Z,8.8
2022-09-25T18:51:12.000Z,8.6
2022-09-25T18:54:44.000Z,6.3
2022-09-25T18:58:17.000Z,5.9
2022-09-25T19:01:50.000Z,4.5
2022-09-25T19:05:23.000Z,3.7
2022-09-25T19:08:14.000Z,3.6
2022-09-25T19:11:46.000Z,3.9
2022-09-25T19:15:19.000Z,5.3
2022-09-25T19:18:52.000Z,4.6
2022-09-25T19:22:24.000Z,3.9
2022-09-25T19:25:57.000Z,6.6
2022-09-25T19:29:30.000Z,8.5
2022-09-25T19:33:02.000Z,7.8
2022-09-25T19:36:35.000Z,6.8
2022-09-25T19:40:11.000Z,4.3
2022-09-25T19:43:44.000Z,4.6
2022-09-25T19:46:35.000Z,11.4
2022-09-25T19:50:08.000Z,7.3
2022-09-25T19:53:40.000Z,4.2
2022-09-25T19:57:13.000Z,4.1
2022-09-25T20:00:46.000Z,3.9
2022-09-25T20:04:18.000Z,4.5
2022-09-25T20:07:51.000Z,4.1
2022-09-25T20:11:24.000Z,6.9
2022-09-25T20:14:56.000Z,7.4
2022-09-25T20:18:29.000Z,4.4
2022-09-25T20:22:02.000Z,3.3
2022-09-25T20:24:53.000Z,3.6
2022-09-25T20:28:26.000Z,3.2
2022-09-25T20:31:58.000Z,3.5
2022-09-25T20:35:33.000Z,3.2
2022-09-25T20:39:06.000Z,3
2022-09-25T20:42:46.000Z,3
2022-09-25T20:46:18.000Z,3
2022-09-25T20:49:51.000Z,3
2022-09-25T20:53:24.000Z,2.7
2022-09-25T20:56:56.000Z,2.9
2022-09-25T21:00:29.000Z,2.9
2022-09-25T21:03:20.000Z,3.4
2022-09-25T21:06:52.000Z,2.8
2022-09-25T21:10:25.000Z,3
2022-09-25T21:13:58.000Z,2.8
2022-09-25T21:17:30.000Z,3
2022-09-25T21:21:03.000Z,3
2022-09-25T21:24:36.000Z,3.3
2022-09-25T21:28:08.000Z,3.3
2022-09-25T21:31:41.000Z,3.7
2022-09-25T21:35:15.000Z,3.5
2022-09-25T21:38:48.000Z,3.2
2022-09-25T21:41:39.000Z,3.9
2022-09-25T21:45:12.000Z,3.8
2022-09-25T21:48:45.000Z,3.4
2022-09-25T21:52:17.000Z,3.6
2022-09-25T21:55:50.000Z,3.1
2022-09-25T21:59:22.000Z,3.5
2022-09-25T22:02:55.000Z,3.4
2022-09-25T22:06:28.000Z,3.5
2022-09-25T22:10:00.000Z,3.2
2022-09-25T22:13:33.000Z,3.4
2022-09-25T22:17:06.000Z,3.7
2022-09-25T22:19:57.000Z,3.5
2022-09-25T22:23:30.000Z,3.5
2022-09-25T22:27:03.000Z,3.7
2022-09-25T22:30:36.000Z,3.9
2022-09-25T22:34:08.000Z,3.5
2022-09-25T22:37:41.000Z,3.3
2022-09-25T22:41:14.000Z,3.2
2022-09-25T22:44:46.000Z,3.6
2022-09-25T22:48:19.000Z,3.5
2022-09-25T22:51:52.000Z,3.5
2022-09-25T22:55:24.000Z,3.4
2022-09-25T22:58:16.000Z,3.4
2022-09-25T23:01:48.000Z,3.4
2022-09-25T23:05:23.000Z,3.2
2022-09-25T23:08:56.000Z,3.4
2022-09-25T23:13:01.000Z,3.3
2022-09-25T23:16:34.000Z,3.3
2022-09-25T23:20:06.000Z,3
2022-09-25T23:23:39.000Z,3.4
2022-09-25T23:27:12.000Z,3.3
2022-09-25T23:30:44.000Z,3
2022-09-25T23:34:17.000Z,3.6
2022-09-25T23:37:09.000Z,3
2022-09-25T23:40:41.000Z,4
2022-09-25T23:44:14.000Z,3.2
2022-09-25T23:47:47.000Z,3.1
2022-09-25T23:51:19.000Z,3.2
2022-09-25T23:54:52.000Z,3
2022-09-25T23:58:24.000Z,2.9
